sensor_id;sensor_type;location;lat;lon;timestamp;P1;durP1;ratioP1;P2;durP2;ratioP2
65469;SDS011;52067;50.710;14.492;2023-06-04T00:01:01;19.85;;;7.18;;
65469;SDS011;52067;50.710;14.492;2023-06-04T00:03:27;19.02;;;6.32;;
65469;SDS011;52067;50.710;14.492;2023-06-04T00:05:52;13.57;;;5.75;;
65469;SDS011;52067;50.710;14.492;2023-06-04T00:08:18;13.30;;;5.15;;
65469;SDS011;52067;50.710;14.492;2023-06-04T00:10:43;14.90;;;5.88;;
65469;SDS011;52067;50.710;14.492;2023-06-04T00:13:09;17.02;;;6.55;;
65469;SDS011;52067;50.710;14.492;2023-06-04T00:15:34;17.73;;;6.18;;
65469;SDS011;52067;50.710;14.492;2023-06-04T00:17:59;17.08;;;5.38;;
65469;SDS011;52067;50.710;14.492;2023-06-04T00:20:25;15.90;;;6.15;;
65469;SDS011;52067;50.710;14.492;2023-06-04T00:22:51;11.38;;;5.32;;
65469;SDS011;52067;50.710;14.492;2023-06-04T00:25:16;14.20;;;5.10;;
65469;SDS011;52067;50.710;14.492;2023-06-04T00:27:41;15.93;;;5.13;;
65469;SDS011;52067;50.710;14.492;2023-06-04T00:30:07;10.95;;;4.13;;
65469;SDS011;52067;50.710;14.492;2023-06-04T00:32:33;8.95;;;4.22;;
65469;SDS011;52067;50.710;14.492;2023-06-04T00:34:58;12.45;;;3.88;;
65469;SDS011;52067;50.710;14.492;2023-06-04T00:37:24;6.22;;;3.03;;
65469;SDS011;52067;50.710;14.492;2023-06-04T00:39:50;8.52;;;4.22;;
65469;SDS011;52067;50.710;14.492;2023-06-04T00:42:16;9.80;;;3.35;;
65469;SDS011;52067;50.710;14.492;2023-06-04T00:44:41;7.30;;;3.85;;
65469;SDS011;52067;50.710;14.492;2023-06-04T00:47:10;5.50;;;3.05;;
65469;SDS011;52067;50.710;14.492;2023-06-04T00:49:39;6.38;;;3.38;;
65469;SDS011;52067;50.710;14.492;2023-06-04T00:52:04;5.80;;;3.38;;
65469;SDS011;52067;50.710;14.492;2023-06-04T00:54:30;10.00;;;3.10;;
65469;SDS011;52067;50.710;14.492;2023-06-04T00:56:57;5.78;;;2.50;;
65469;SDS011;52067;50.710;14.492;2023-06-04T00:59:23;8.10;;;3.60;;
65469;SDS011;52067;50.710;14.492;2023-06-04T01:01:57;7.50;;;3.67;;
65469;SDS011;52067;50.710;14.492;2023-06-04T01:04:29;9.18;;;3.58;;
65469;SDS011;52067;50.710;14.492;2023-06-04T01:06:57;9.70;;;3.47;;
65469;SDS011;52067;50.710;14.492;2023-06-04T01:09:24;7.38;;;3.90;;
65469;SDS011;52067;50.710;14.492;2023-06-04T01:11:51;11.57;;;4.22;;
65469;SDS011;52067;50.710;14.492;2023-06-04T01:14:17;11.05;;;4.72;;
65469;SDS011;52067;50.710;14.492;2023-06-04T01:16:50;8.90;;;4.18;;
65469;SDS011;52067;50.710;14.492;2023-06-04T01:25:15;7.35;;;3.95;;
65469;SDS011;52067;50.710;14.492;2023-06-04T01:27:51;9.50;;;3.45;;
65469;SDS011;52067;50.710;14.492;2023-06-04T01:30:24;7.60;;;3.40;;
65469;SDS011;52067;50.710;14.492;2023-06-04T01:32:52;8.80;;;4.20;;
65469;SDS011;52067;50.710;14.492;2023-06-04T01:35:18;9.15;;;3.60;;
65469;SDS011;52067;50.710;14.492;2023-06-04T01:37:44;7.65;;;3.88;;
65469;SDS011;52067;50.710;14.492;2023-06-04T01:40:10;6.15;;;2.90;;
65469;SDS011;52067;50.710;14.492;2023-06-04T01:42:36;5.72;;;3.10;;
65469;SDS011;52067;50.710;14.492;2023-06-04T01:45:01;4.88;;;2.80;;
65469;SDS011;52067;50.710;14.492;2023-06-04T01:47:26;5.20;;;2.72;;
65469;SDS011;52067;50.710;14.492;2023-06-04T01:49:52;6.50;;;3.30;;
65469;SDS011;52067;50.710;14.492;2023-06-04T01:52:17;5.95;;;2.80;;
65469;SDS011;52067;50.710;14.492;2023-06-04T01:54:46;8.25;;;3.10;;
65469;SDS011;52067;50.710;14.492;2023-06-04T01:57:13;6.22;;;3.38;;
65469;SDS011;52067;50.710;14.492;2023-06-04T01:59:39;5.57;;;3.25;;
65469;SDS011;52067;50.710;14.492;2023-06-04T02:02:06;6.78;;;3.22;;
65469;SDS011;52067;50.710;14.492;2023-06-04T02:04:31;7.28;;;3.42;;
65469;SDS011;52067;50.710;14.492;2023-06-04T02:06:57;8.05;;;3.95;;
65469;SDS011;52067;50.710;14.492;2023-06-04T02:09:24;7.70;;;3.60;;
65469;SDS011;52067;50.710;14.492;2023-06-04T02:11:50;9.20;;;4.30;;
65469;SDS011;52067;50.710;14.492;2023-06-04T02:14:16;9.57;;;4.20;;
65469;SDS011;52067;50.710;14.492;2023-06-04T02:16:41;7.25;;;4.07;;
65469;SDS011;52067;50.710;14.492;2023-06-04T02:19:07;11.52;;;4.35;;
65469;SDS011;52067;50.710;14.492;2023-06-04T02:21:32;10.40;;;4.40;;
65469;SDS011;52067;50.710;14.492;2023-06-04T02:23:58;11.00;;;4.65;;
65469;SDS011;52067;50.710;14.492;2023-06-04T02:26:23;11.90;;;4.43;;
65469;SDS011;52067;50.710;14.492;2023-06-04T02:28:50;10.98;;;4.88;;
65469;SDS011;52067;50.710;14.492;2023-06-04T02:31:15;13.00;;;4.55;;
65469;SDS011;52067;50.710;14.492;2023-06-04T02:33:41;12.10;;;5.18;;
65469;SDS011;52067;50.710;14.492;2023-06-04T02:36:06;11.18;;;4.95;;
65469;SDS011;52067;50.710;14.492;2023-06-04T02:38:33;22.23;;;6.82;;
65469;SDS011;52067;50.710;14.492;2023-06-04T02:40:59;17.70;;;6.18;;
65469;SDS011;52067;50.710;14.492;2023-06-04T02:43:25;27.67;;;8.90;;
65469;SDS011;52067;50.710;14.492;2023-06-04T02:45:50;16.52;;;6.43;;
65469;SDS011;52067;50.710;14.492;2023-06-04T02:48:16;24.67;;;9.13;;
65469;SDS011;52067;50.710;14.492;2023-06-04T02:50:41;25.38;;;7.45;;
65469;SDS011;52067;50.710;14.492;2023-06-04T02:53:07;23.92;;;8.30;;
65469;SDS011;52067;50.710;14.492;2023-06-04T02:55:33;25.83;;;7.82;;
65469;SDS011;52067;50.710;14.492;2023-06-04T02:57:59;18.75;;;6.38;;
65469;SDS011;52067;50.710;14.492;2023-06-04T03:00:25;17.95;;;6.15;;
65469;SDS011;52067;50.710;14.492;2023-06-04T03:02:51;19.90;;;6.78;;
65469;SDS011;52067;50.710;14.492;2023-06-04T03:05:17;18.00;;;6.28;;
65469;SDS011;52067;50.710;14.492;2023-06-04T03:07:43;17.52;;;6.30;;
65469;SDS011;52067;50.710;14.492;2023-06-04T03:10:10;18.25;;;6.38;;
65469;SDS011;52067;50.710;14.492;2023-06-04T03:12:37;18.17;;;6.85;;
65469;SDS011;52067;50.710;14.492;2023-06-04T03:15:02;22.90;;;6.45;;
65469;SDS011;52067;50.710;14.492;2023-06-04T03:17:30;19.88;;;6.68;;
65469;SDS011;52067;50.710;14.492;2023-06-04T03:19:56;24.42;;;7.47;;
65469;SDS011;52067;50.710;14.492;2023-06-04T03:22:22;19.23;;;6.93;;
65469;SDS011;52067;50.710;14.492;2023-06-04T03:24:48;18.15;;;7.32;;
65469;SDS011;52067;50.710;14.492;2023-06-04T03:27:13;15.10;;;6.30;;
65469;SDS011;52067;50.710;14.492;2023-06-04T03:29:39;14.70;;;6.78;;
65469;SDS011;52067;50.710;14.492;2023-06-04T03:32:05;16.77;;;6.40;;
65469;SDS011;52067;50.710;14.492;2023-06-04T03:34:31;16.88;;;5.75;;
65469;SDS011;52067;50.710;14.492;2023-06-04T03:36:57;16.13;;;6.32;;
65469;SDS011;52067;50.710;14.492;2023-06-04T03:39:23;16.75;;;6.63;;
65469;SDS011;52067;50.710;14.492;2023-06-04T03:41:49;16.13;;;7.10;;
65469;SDS011;52067;50.710;14.492;2023-06-04T03:44:15;19.48;;;7.35;;
65469;SDS011;52067;50.710;14.492;2023-06-04T03:46:42;27.83;;;7.38;;
65469;SDS011;52067;50.710;14.492;2023-06-04T03:49:11;16.67;;;6.40;;
65469;SDS011;52067;50.710;14.492;2023-06-04T03:51:37;18.25;;;6.20;;
65469;SDS011;52067;50.710;14.492;2023-06-04T03:54:03;16.95;;;5.30;;
65469;SDS011;52067;50.710;14.492;2023-06-04T03:56:29;12.60;;;5.40;;
65469;SDS011;52067;50.710;14.492;2023-06-04T03:58:55;17.20;;;5.90;;
65469;SDS011;52067;50.710;14.492;2023-06-04T04:01:21;15.98;;;6.47;;
65469;SDS011;52067;50.710;14.492;2023-06-04T04:03:48;24.05;;;5.72;;
65469;SDS011;52067;50.710;14.492;2023-06-04T04:06:15;21.80;;;6.60;;
65469;SDS011;52067;50.710;14.492;2023-06-04T04:08:41;17.13;;;6.05;;
65469;SDS011;52067;50.710;14.492;2023-06-04T04:11:13;15.50;;;5.53;;
65469;SDS011;52067;50.710;14.492;2023-06-04T04:13:39;13.88;;;5.40;;
65469;SDS011;52067;50.710;14.492;2023-06-04T04:16:05;16.92;;;5.00;;
65469;SDS011;52067;50.710;14.492;2023-06-04T04:18:34;11.80;;;4.90;;
65469;SDS011;52067;50.710;14.492;2023-06-04T04:21:01;13.40;;;4.70;;
65469;SDS011;52067;50.710;14.492;2023-06-04T04:23:28;12.63;;;4.93;;
65469;SDS011;52067;50.710;14.492;2023-06-04T04:25:53;10.30;;;4.35;;
65469;SDS011;52067;50.710;14.492;2023-06-04T04:28:21;14.27;;;4.03;;
65469;SDS011;52067;50.710;14.492;2023-06-04T04:30:47;10.07;;;3.70;;
65469;SDS011;52067;50.710;14.492;2023-06-04T04:33:13;8.80;;;3.40;;
65469;SDS011;52067;50.710;14.492;2023-06-04T04:35:41;8.15;;;3.00;;
65469;SDS011;52067;50.710;14.492;2023-06-04T04:38:10;7.28;;;3.08;;
65469;SDS011;52067;50.710;14.492;2023-06-04T04:40:36;6.43;;;3.22;;
65469;SDS011;52067;50.710;14.492;2023-06-04T04:43:01;5.82;;;2.22;;
65469;SDS011;52067;50.710;14.492;2023-06-04T04:45:27;5.40;;;2.42;;
65469;SDS011;52067;50.710;14.492;2023-06-04T04:47:52;5.50;;;2.30;;
65469;SDS011;52067;50.710;14.492;2023-06-04T04:50:18;3.90;;;2.20;;
65469;SDS011;52067;50.710;14.492;2023-06-04T04:52:43;5.28;;;2.42;;
65469;SDS011;52067;50.710;14.492;2023-06-04T04:55:09;4.05;;;2.30;;
65469;SDS011;52067;50.710;14.492;2023-06-04T04:57:34;7.93;;;2.70;;
65469;SDS011;52067;50.710;14.492;2023-06-04T05:00:00;4.38;;;2.40;;
65469;SDS011;52067;50.710;14.492;2023-06-04T05:02:26;6.95;;;2.55;;
65469;SDS011;52067;50.710;14.492;2023-06-04T05:04:51;5.90;;;2.70;;
65469;SDS011;52067;50.710;14.492;2023-06-04T05:07:17;7.60;;;2.72;;
65469;SDS011;52067;50.710;14.492;2023-06-04T05:09:44;5.00;;;2.50;;
65469;SDS011;52067;50.710;14.492;2023-06-04T05:12:10;5.32;;;2.38;;
65469;SDS011;52067;50.710;14.492;2023-06-04T05:14:36;6.20;;;2.92;;
65469;SDS011;52067;50.710;14.492;2023-06-04T05:17:01;6.85;;;3.08;;
65469;SDS011;52067;50.710;14.492;2023-06-04T05:19:28;3.53;;;2.17;;
65469;SDS011;52067;50.710;14.492;2023-06-04T05:21:54;4.95;;;2.50;;
65469;SDS011;52067;50.710;14.492;2023-06-04T05:24:19;5.68;;;2.65;;
65469;SDS011;52067;50.710;14.492;2023-06-04T05:26:45;9.13;;;2.60;;
65469;SDS011;52067;50.710;14.492;2023-06-04T05:29:13;6.55;;;2.88;;
65469;SDS011;52067;50.710;14.492;2023-06-04T05:31:38;4.10;;;2.47;;
65469;SDS011;52067;50.710;14.492;2023-06-04T05:34:04;6.18;;;2.55;;
65469;SDS011;52067;50.710;14.492;2023-06-04T05:36:30;4.75;;;2.60;;
65469;SDS011;52067;50.710;14.492;2023-06-04T05:38:56;4.55;;;2.50;;
65469;SDS011;52067;50.710;14.492;2023-06-04T05:41:26;4.25;;;2.50;;
65469;SDS011;52067;50.710;14.492;2023-06-04T05:43:52;7.68;;;2.50;;
65469;SDS011;52067;50.710;14.492;2023-06-04T05:46:18;8.13;;;2.25;;
65469;SDS011;52067;50.710;14.492;2023-06-04T05:48:43;4.22;;;2.13;;
65469;SDS011;52067;50.710;14.492;2023-06-04T05:51:09;3.03;;;2.08;;
65469;SDS011;52067;50.710;14.492;2023-06-04T05:53:34;3.03;;;1.70;;
65469;SDS011;52067;50.710;14.492;2023-06-04T05:56:00;4.07;;;2.13;;
65469;SDS011;52067;50.710;14.492;2023-06-04T05:58:25;3.67;;;2.00;;
65469;SDS011;52067;50.710;14.492;2023-06-04T06:00:51;3.28;;;1.90;;
65469;SDS011;52067;50.710;14.492;2023-06-04T06:03:16;7.55;;;2.28;;
65469;SDS011;52067;50.710;14.492;2023-06-04T06:05:42;7.68;;;2.05;;
65469;SDS011;52067;50.710;14.492;2023-06-04T06:08:08;3.60;;;1.90;;
65469;SDS011;52067;50.710;14.492;2023-06-04T06:10:33;3.72;;;2.03;;
65469;SDS011;52067;50.710;14.492;2023-06-04T06:12:59;4.70;;;1.88;;
65469;SDS011;52067;50.710;14.492;2023-06-04T06:15:25;3.78;;;2.15;;
65469;SDS011;52067;50.710;14.492;2023-06-04T06:17:51;5.18;;;1.80;;
65469;SDS011;52067;50.710;14.492;2023-06-04T06:20:17;5.60;;;1.83;;
65469;SDS011;52067;50.710;14.492;2023-06-04T06:22:43;2.58;;;1.70;;
65469;SDS011;52067;50.710;14.492;2023-06-04T06:25:09;3.63;;;1.80;;
65469;SDS011;52067;50.710;14.492;2023-06-04T06:27:38;4.72;;;1.80;;
65469;SDS011;52067;50.710;14.492;2023-06-04T06:30:06;2.40;;;1.50;;
65469;SDS011;52067;50.710;14.492;2023-06-04T06:32:32;3.70;;;2.05;;
65469;SDS011;52067;50.710;14.492;2023-06-04T06:34:57;4.05;;;1.80;;
65469;SDS011;52067;50.710;14.492;2023-06-04T06:37:23;3.47;;;1.90;;
65469;SDS011;52067;50.710;14.492;2023-06-04T06:39:48;5.43;;;1.40;;
65469;SDS011;52067;50.710;14.492;2023-06-04T06:42:13;8.68;;;1.92;;
65469;SDS011;52067;50.710;14.492;2023-06-04T06:44:42;3.97;;;1.75;;
65469;SDS011;52067;50.710;14.492;2023-06-04T06:47:07;2.50;;;1.60;;
65469;SDS011;52067;50.710;14.492;2023-06-04T06:49:33;3.42;;;1.52;;
65469;SDS011;52067;50.710;14.492;2023-06-04T06:51:58;3.05;;;1.60;;
65469;SDS011;52067;50.710;14.492;2023-06-04T06:54:23;2.90;;;1.52;;
65469;SDS011;52067;50.710;14.492;2023-06-04T06:56:49;5.35;;;1.75;;
65469;SDS011;52067;50.710;14.492;2023-06-04T06:59:15;3.42;;;1.60;;
65469;SDS011;52067;50.710;14.492;2023-06-04T07:01:41;5.13;;;1.75;;
65469;SDS011;52067;50.710;14.492;2023-06-04T07:04:06;2.75;;;1.58;;
65469;SDS011;52067;50.710;14.492;2023-06-04T07:06:32;3.90;;;1.40;;
65469;SDS011;52067;50.710;14.492;2023-06-04T07:08:58;3.75;;;1.77;;
65469;SDS011;52067;50.710;14.492;2023-06-04T07:11:24;3.53;;;1.60;;
65469;SDS011;52067;50.710;14.492;2023-06-04T07:13:50;3.63;;;1.40;;
65469;SDS011;52067;50.710;14.492;2023-06-04T07:16:16;2.97;;;1.60;;
65469;SDS011;52067;50.710;14.492;2023-06-04T07:18:41;4.95;;;1.70;;
65469;SDS011;52067;50.710;14.492;2023-06-04T07:21:07;3.53;;;1.77;;
65469;SDS011;52067;50.710;14.492;2023-06-04T07:23:32;2.30;;;1.50;;
65469;SDS011;52067;50.710;14.492;2023-06-04T07:25:57;6.13;;;1.70;;
65469;SDS011;52067;50.710;14.492;2023-06-04T07:28:23;5.70;;;1.65;;
65469;SDS011;52067;50.710;14.492;2023-06-04T07:30:48;6.15;;;1.52;;
65469;SDS011;52067;50.710;14.492;2023-06-04T07:33:15;4.25;;;1.67;;
65469;SDS011;52067;50.710;14.492;2023-06-04T07:35:40;4.10;;;1.73;;
65469;SDS011;52067;50.710;14.492;2023-06-04T07:38:06;6.15;;;1.60;;
65469;SDS011;52067;50.710;14.492;2023-06-04T07:40:31;2.95;;;1.60;;
65469;SDS011;52067;50.710;14.492;2023-06-04T07:42:57;2.38;;;1.40;;
65469;SDS011;52067;50.710;14.492;2023-06-04T07:45:22;3.45;;;1.55;;
65469;SDS011;52067;50.710;14.492;2023-06-04T07:47:47;3.63;;;1.70;;
65469;SDS011;52067;50.710;14.492;2023-06-04T07:50:13;3.28;;;1.58;;
65469;SDS011;52067;50.710;14.492;2023-06-04T07:52:39;2.58;;;1.33;;
65469;SDS011;52067;50.710;14.492;2023-06-04T07:55:05;4.53;;;1.60;;
65469;SDS011;52067;50.710;14.492;2023-06-04T07:57:31;4.65;;;1.35;;
65469;SDS011;52067;50.710;14.492;2023-06-04T07:59:57;3.22;;;1.55;;
65469;SDS011;52067;50.710;14.492;2023-06-04T08:02:24;3.83;;;1.42;;
65469;SDS011;52067;50.710;14.492;2023-06-04T08:04:50;3.83;;;1.55;;
65469;SDS011;52067;50.710;14.492;2023-06-04T08:07:15;2.97;;;1.60;;
65469;SDS011;52067;50.710;14.492;2023-06-04T08:09:41;3.55;;;1.50;;
65469;SDS011;52067;50.710;14.492;2023-06-04T08:12:06;3.20;;;1.40;;
65469;SDS011;52067;50.710;14.492;2023-06-04T08:14:32;3.78;;;1.50;;
65469;SDS011;52067;50.710;14.492;2023-06-04T08:16:57;3.92;;;1.58;;
65469;SDS011;52067;50.710;14.492;2023-06-04T08:19:23;2.97;;;1.58;;
65469;SDS011;52067;50.710;14.492;2023-06-04T08:21:49;6.57;;;2.05;;
65469;SDS011;52067;50.710;14.492;2023-06-04T08:24:15;7.00;;;1.77;;
65469;SDS011;52067;50.710;14.492;2023-06-04T08:26:40;2.88;;;1.48;;
65469;SDS011;52067;50.710;14.492;2023-06-04T08:29:06;2.75;;;1.75;;
65469;SDS011;52067;50.710;14.492;2023-06-04T08:31:32;3.33;;;1.65;;
65469;SDS011;52067;50.710;14.492;2023-06-04T08:33:58;5.18;;;1.77;;
65469;SDS011;52067;50.710;14.492;2023-06-04T08:36:24;4.05;;;1.60;;
65469;SDS011;52067;50.710;14.492;2023-06-04T08:38:50;4.97;;;1.80;;
65469;SDS011;52067;50.710;14.492;2023-06-04T08:44:07;2.97;;;1.60;;
65469;SDS011;52067;50.710;14.492;2023-06-04T08:46:34;3.30;;;1.70;;
65469;SDS011;52067;50.710;14.492;2023-06-04T08:49:04;5.82;;;1.80;;
65469;SDS011;52067;50.710;14.492;2023-06-04T08:51:32;2.90;;;1.50;;
65469;SDS011;52067;50.710;14.492;2023-06-04T08:54:00;4.97;;;1.60;;
65469;SDS011;52067;50.710;14.492;2023-06-04T08:56:25;5.32;;;1.52;;
65469;SDS011;52067;50.710;14.492;2023-06-04T08:58:55;6.78;;;1.70;;
65469;SDS011;52067;50.710;14.492;2023-06-04T09:01:24;2.88;;;1.55;;
65469;SDS011;52067;50.710;14.492;2023-06-04T09:03:50;3.70;;;1.60;;
65469;SDS011;52067;50.710;14.492;2023-06-04T09:06:15;5.25;;;1.70;;
65469;SDS011;52067;50.710;14.492;2023-06-04T09:08:41;5.88;;;1.70;;
65469;SDS011;52067;50.710;14.492;2023-06-04T09:11:10;2.75;;;1.33;;
65469;SDS011;52067;50.710;14.492;2023-06-04T09:13:38;2.65;;;1.60;;
65469;SDS011;52067;50.710;14.492;2023-06-04T09:16:05;2.65;;;1.52;;
65469;SDS011;52067;50.710;14.492;2023-06-04T09:18:31;3.58;;;1.60;;
65469;SDS011;52067;50.710;14.492;2023-06-04T09:21:00;6.80;;;1.75;;
65469;SDS011;52067;50.710;14.492;2023-06-04T09:23:30;4.07;;;1.63;;
65469;SDS011;52067;50.710;14.492;2023-06-04T09:25:57;5.07;;;1.58;;
65469;SDS011;52067;50.710;14.492;2023-06-04T09:28:32;7.15;;;1.70;;
65469;SDS011;52067;50.710;14.492;2023-06-04T09:30:58;3.70;;;1.33;;
65469;SDS011;52067;50.710;14.492;2023-06-04T09:33:23;4.03;;;1.50;;
65469;SDS011;52067;50.710;14.492;2023-06-04T09:35:55;2.03;;;1.35;;
65469;SDS011;52067;50.710;14.492;2023-06-04T09:38:21;3.60;;;1.70;;
65469;SDS011;52067;50.710;14.492;2023-06-04T09:40:47;2.88;;;1.60;;
65469;SDS011;52067;50.710;14.492;2023-06-04T09:43:20;2.30;;;1.27;;
65469;SDS011;52067;50.710;14.492;2023-06-04T09:45:47;2.55;;;1.60;;
65469;SDS011;52067;50.710;14.492;2023-06-04T09:48:18;4.45;;;1.67;;
65469;SDS011;52067;50.710;14.492;2023-06-04T09:50:45;3.10;;;1.60;;
65469;SDS011;52067;50.710;14.492;2023-06-04T09:53:15;3.45;;;1.42;;
65469;SDS011;52067;50.710;14.492;2023-06-04T09:55:41;2.58;;;1.58;;
65469;SDS011;52067;50.710;14.492;2023-06-04T09:58:07;5.18;;;1.60;;
65469;SDS011;52067;50.710;14.492;2023-06-04T10:00:34;2.15;;;1.40;;
65469;SDS011;52067;50.710;14.492;2023-06-04T10:03:01;2.50;;;1.55;;
65469;SDS011;52067;50.710;14.492;2023-06-04T10:05:29;2.30;;;1.40;;
65469;SDS011;52067;50.710;14.492;2023-06-04T10:07:58;3.38;;;1.40;;
65469;SDS011;52067;50.710;14.492;2023-06-04T10:10:27;3.05;;;1.60;;
65469;SDS011;52067;50.710;14.492;2023-06-04T10:13:00;4.38;;;1.52;;
65469;SDS011;52067;50.710;14.492;2023-06-04T10:15:29;2.10;;;1.40;;
65469;SDS011;52067;50.710;14.492;2023-06-04T10:17:58;2.80;;;1.60;;
65469;SDS011;52067;50.710;14.492;2023-06-04T10:20:24;1.92;;;1.27;;
65469;SDS011;52067;50.710;14.492;2023-06-04T10:22:49;2.38;;;1.30;;
65469;SDS011;52067;50.710;14.492;2023-06-04T10:25:15;2.80;;;1.50;;
65469;SDS011;52067;50.710;14.492;2023-06-04T10:27:42;2.08;;;1.50;;
65469;SDS011;52067;50.710;14.492;2023-06-04T10:30:07;4.93;;;1.52;;
65469;SDS011;52067;50.710;14.492;2023-06-04T10:32:34;4.90;;;1.52;;
65469;SDS011;52067;50.710;14.492;2023-06-04T10:35:03;3.22;;;1.70;;
65469;SDS011;52067;50.710;14.492;2023-06-04T10:37:29;3.28;;;1.58;;
65469;SDS011;52067;50.710;14.492;2023-06-04T10:39:55;4.03;;;1.85;;
65469;SDS011;52067;50.710;14.492;2023-06-04T10:42:22;2.58;;;1.40;;
65469;SDS011;52067;50.710;14.492;2023-06-04T10:44:50;3.95;;;1.60;;
65469;SDS011;52067;50.710;14.492;2023-06-04T10:47:20;7.72;;;1.60;;
65469;SDS011;52067;50.710;14.492;2023-06-04T10:49:53;2.60;;;1.33;;
65469;SDS011;52067;50.710;14.492;2023-06-04T10:52:20;4.50;;;1.52;;
65469;SDS011;52067;50.710;14.492;2023-06-04T10:54:46;3.22;;;1.38;;
65469;SDS011;52067;50.710;14.492;2023-06-04T10:57:18;17.30;;;1.55;;
65469;SDS011;52067;50.710;14.492;2023-06-04T10:59:53;1.98;;;1.30;;
65469;SDS011;52067;50.710;14.492;2023-06-04T11:02:19;2.47;;;1.30;;
65469;SDS011;52067;50.710;14.492;2023-06-04T11:04:45;4.63;;;1.45;;
65469;SDS011;52067;50.710;14.492;2023-06-04T11:07:11;1.80;;;1.48;;
65469;SDS011;52067;50.710;14.492;2023-06-04T11:09:37;3.03;;;1.50;;
65469;SDS011;52067;50.710;14.492;2023-06-04T11:12:12;2.03;;;1.27;;
65469;SDS011;52067;50.710;14.492;2023-06-04T11:14:38;2.30;;;1.33;;
65469;SDS011;52067;50.710;14.492;2023-06-04T11:17:10;3.83;;;1.60;;
65469;SDS011;52067;50.710;14.492;2023-06-04T11:19:36;5.65;;;1.80;;
65469;SDS011;52067;50.710;14.492;2023-06-04T11:22:02;4.78;;;1.50;;
65469;SDS011;52067;50.710;14.492;2023-06-04T11:24:27;3.50;;;1.50;;
65469;SDS011;52067;50.710;14.492;2023-06-04T11:26:54;3.25;;;1.50;;
65469;SDS011;52067;50.710;14.492;2023-06-04T11:29:24;4.18;;;1.42;;
65469;SDS011;52067;50.710;14.492;2023-06-04T11:31:50;5.68;;;1.60;;
65469;SDS011;52067;50.710;14.492;2023-06-04T11:34:48;6.78;;;1.63;;
65469;SDS011;52067;50.710;14.492;2023-06-04T11:37:07;8.35;;;1.60;;
65469;SDS011;52067;50.710;14.492;2023-06-04T11:39:34;7.15;;;2.65;;
65469;SDS011;52067;50.710;14.492;2023-06-04T11:42:06;5.93;;;2.80;;
65469;SDS011;52067;50.710;14.492;2023-06-04T11:44:32;4.15;;;2.13;;
65469;SDS011;52067;50.710;14.492;2023-06-04T11:46:58;2.90;;;1.38;;
65469;SDS011;52067;50.710;14.492;2023-06-04T11:49:24;3.47;;;1.63;;
65469;SDS011;52067;50.710;14.492;2023-06-04T11:51:51;5.07;;;1.50;;
65469;SDS011;52067;50.710;14.492;2023-06-04T11:54:18;4.40;;;1.60;;
65469;SDS011;52067;50.710;14.492;2023-06-04T11:56:45;4.68;;;1.48;;
65469;SDS011;52067;50.710;14.492;2023-06-04T11:59:13;2.83;;;1.40;;
65469;SDS011;52067;50.710;14.492;2023-06-04T12:01:43;3.03;;;1.70;;
65469;SDS011;52067;50.710;14.492;2023-06-04T12:04:13;6.10;;;1.70;;
65469;SDS011;52067;50.710;14.492;2023-06-04T12:06:55;2.90;;;1.50;;
65469;SDS011;52067;50.710;14.492;2023-06-04T12:09:24;2.75;;;1.63;;
65469;SDS011;52067;50.710;14.492;2023-06-04T12:11:57;5.68;;;1.75;;
65469;SDS011;52067;50.710;14.492;2023-06-04T12:14:23;4.82;;;1.65;;
65469;SDS011;52067;50.710;14.492;2023-06-04T12:19:48;3.63;;;1.60;;
65469;SDS011;52067;50.710;14.492;2023-06-04T12:22:14;3.20;;;1.50;;
65469;SDS011;52067;50.710;14.492;2023-06-04T12:24:50;3.78;;;1.70;;
65469;SDS011;52067;50.710;14.492;2023-06-04T12:27:20;4.78;;;1.50;;
65469;SDS011;52067;50.710;14.492;2023-06-04T12:29:56;5.32;;;1.50;;
65469;SDS011;52067;50.710;14.492;2023-06-04T12:32:23;4.25;;;1.67;;
65469;SDS011;52067;50.710;14.492;2023-06-04T12:34:49;7.45;;;1.70;;
65469;SDS011;52067;50.710;14.492;2023-06-04T12:37:14;4.93;;;1.63;;
65469;SDS011;52067;50.710;14.492;2023-06-04T12:39:40;3.25;;;1.50;;
65469;SDS011;52067;50.710;14.492;2023-06-04T12:42:05;2.03;;;1.40;;
65469;SDS011;52067;50.710;14.492;2023-06-04T12:44:32;3.03;;;1.65;;
65469;SDS011;52067;50.710;14.492;2023-06-04T12:46:57;4.50;;;1.83;;
65469;SDS011;52067;50.710;14.492;2023-06-04T12:49:23;4.25;;;1.65;;
65469;SDS011;52067;50.710;14.492;2023-06-04T12:51:48;5.53;;;1.70;;
65469;SDS011;52067;50.710;14.492;2023-06-04T12:54:14;8.45;;;1.60;;
65469;SDS011;52067;50.710;14.492;2023-06-04T12:56:40;5.35;;;2.05;;
65469;SDS011;52067;50.710;14.492;2023-06-04T12:59:06;3.05;;;1.48;;
65469;SDS011;52067;50.710;14.492;2023-06-04T13:01:31;2.75;;;1.65;;
65469;SDS011;52067;50.710;14.492;2023-06-04T13:03:57;4.53;;;1.75;;
65469;SDS011;52067;50.710;14.492;2023-06-04T13:06:22;3.75;;;1.80;;
65469;SDS011;52067;50.710;14.492;2023-06-04T13:08:48;5.53;;;1.60;;
65469;SDS011;52067;50.710;14.492;2023-06-04T13:11:13;7.32;;;1.80;;
65469;SDS011;52067;50.710;14.492;2023-06-04T13:13:39;5.90;;;2.22;;
65469;SDS011;52067;50.710;14.492;2023-06-04T13:16:04;3.92;;;1.70;;
65469;SDS011;52067;50.710;14.492;2023-06-04T13:18:30;4.63;;;1.60;;
65469;SDS011;52067;50.710;14.492;2023-06-04T13:20:55;4.65;;;1.70;;
65469;SDS011;52067;50.710;14.492;2023-06-04T13:23:21;5.05;;;1.65;;
65469;SDS011;52067;50.710;14.492;2023-06-04T13:25:48;2.47;;;1.50;;
65469;SDS011;52067;50.710;14.492;2023-06-04T13:28:13;3.00;;;1.63;;
65469;SDS011;52067;50.710;14.492;2023-06-04T13:30:40;4.18;;;1.73;;
65469;SDS011;52067;50.710;14.492;2023-06-04T13:33:05;2.97;;;1.50;;
65469;SDS011;52067;50.710;14.492;2023-06-04T13:35:31;3.83;;;1.55;;
65469;SDS011;52067;50.710;14.492;2023-06-04T13:37:56;5.65;;;1.85;;
65469;SDS011;52067;50.710;14.492;2023-06-04T13:40:22;6.30;;;1.70;;
65469;SDS011;52067;50.710;14.492;2023-06-04T13:42:47;7.53;;;1.73;;
65469;SDS011;52067;50.710;14.492;2023-06-04T13:45:13;8.23;;;1.65;;
65469;SDS011;52067;50.710;14.492;2023-06-04T13:47:38;3.15;;;1.70;;
65469;SDS011;52067;50.710;14.492;2023-06-04T13:50:05;4.32;;;1.60;;
65469;SDS011;52067;50.710;14.492;2023-06-04T13:52:30;4.85;;;1.40;;
65469;SDS011;52067;50.710;14.492;2023-06-04T13:54:56;2.53;;;1.42;;
65469;SDS011;52067;50.710;14.492;2023-06-04T13:57:24;2.70;;;1.60;;
65469;SDS011;52067;50.710;14.492;2023-06-04T13:59:49;5.20;;;1.63;;
65469;SDS011;52067;50.710;14.492;2023-06-04T14:02:15;2.38;;;1.52;;
65469;SDS011;52067;50.710;14.492;2023-06-04T14:04:40;1.92;;;1.40;;
65469;SDS011;52067;50.710;14.492;2023-06-04T14:07:06;5.93;;;1.55;;
65469;SDS011;52067;50.710;14.492;2023-06-04T14:09:31;4.38;;;1.50;;
65469;SDS011;52067;50.710;14.492;2023-06-04T14:11:57;4.18;;;1.60;;
65469;SDS011;52067;50.710;14.492;2023-06-04T14:14:23;5.53;;;1.52;;
65469;SDS011;52067;50.710;14.492;2023-06-04T14:16:49;2.60;;;1.48;;
65469;SDS011;52067;50.710;14.492;2023-06-04T14:19:14;7.07;;;4.65;;
65469;SDS011;52067;50.710;14.492;2023-06-04T14:21:41;5.55;;;2.20;;
65469;SDS011;52067;50.710;14.492;2023-06-04T14:24:08;2.60;;;1.60;;
65469;SDS011;52067;50.710;14.492;2023-06-04T14:26:34;2.95;;;1.55;;
65469;SDS011;52067;50.710;14.492;2023-06-04T14:29:00;4.80;;;1.58;;
65469;SDS011;52067;50.710;14.492;2023-06-04T14:31:26;2.88;;;1.40;;
65469;SDS011;52067;50.710;14.492;2023-06-04T14:33:51;3.72;;;1.70;;
65469;SDS011;52067;50.710;14.492;2023-06-04T14:36:17;2.70;;;1.42;;
65469;SDS011;52067;50.710;14.492;2023-06-04T14:38:43;3.47;;;1.48;;